Terminal Aerodrome Forecast
Issued by NWS

Home | Current Version | Previous Version | Text Only | Print | Product List | Glossary Off
Versions: 1 2 3 4 5 6 7 8 9 10 11 12 13 14 15 16 17 18 19 20 21

027
FTUS43 KICT 181731
TAFHUT
TAF
KHUT 181731Z 1818/1918 18029G39KT P6SM SCT050 BKN200
     FM190100 18021G29KT P6SM BKN200
     FM190500 18018G25KT P6SM BKN030 WS020/21050KT
     FM191300 24016KT P6SM BKN030
     FM191600 35015KT P6SM BKN030=

USA.gov is the U.S. government's official web portal to all federal, state and local government web resources and services.